Time;durP1;ratioP1;P1;durP2;ratioP2;P2;SDS_P1;SDS_P2;PMS_P1;PMS_P2;Temp;Humidity;BMP_temperature;BMP_pressure;BME280_temperature;BME280_humidity;BME280_pressure;Samples;Min_cycle;Max_cycle;Signal;HPM_P1;HPM_P2
2022/07/25 00:00:29;;;;;;;7.70;7.20;;;;;;;22.40;60.13;98303.00;4169760;28;20231;-50
2022/07/25 00:02:32;;;;;;;6.85;6.25;;;;;;;22.36;60.20;98302.84;4170983;28;20246;-51
2022/07/25 00:04:34;;;;;;;7.38;6.88;;;;;;;22.36;60.41;98296.44;4170365;28;20297;-52
2022/07/25 00:06:37;;;;;;;7.05;6.57;;;;;;;22.16;60.90;98297.13;4182703;28;20213;-52
2022/07/25 00:08:39;;;;;;;8.65;8.05;;;;;;;22.14;60.46;98293.84;4173878;28;20219;-51
2022/07/25 00:10:41;;;;;;;8.38;7.70;;;;;;;22.17;60.52;98293.22;4169775;28;20231;-50
2022/07/25 00:12:43;;;;;;;7.18;6.78;;;;;;;22.18;60.48;98294.84;4169834;28;20256;-52
2022/07/25 00:14:45;;;;;;;7.15;6.65;;;;;;;22.21;60.71;98296.97;4175469;28;20215;-50
2022/07/25 00:16:46;;;;;;;7.68;7.07;;;;;;;22.23;60.51;98289.09;4170939;28;20290;-52
2022/07/25 00:18:48;;;;;;;8.02;7.53;;;;;;;22.23;60.27;98292.69;4173705;28;20884;-52
2022/07/25 00:20:50;;;;;;;8.10;7.50;;;;;;;22.27;60.20;98281.69;4169294;28;20671;-51
2022/07/25 00:22:51;;;;;;;6.95;6.55;;;;;;;22.25;60.40;98286.78;4172389;28;20212;-51
2022/07/25 00:24:53;;;;;;;7.97;7.38;;;;;;;22.18;60.84;98283.69;4183750;28;20202;-50
2022/07/25 00:26:55;;;;;;;7.68;6.97;;;;;;;22.10;60.49;98274.19;4173599;28;20199;-50
2022/07/25 00:28:56;;;;;;;7.70;7.00;;;;;;;22.10;60.43;98282.56;4185459;28;20202;-51
2022/07/25 00:30:58;;;;;;;6.50;6.10;;;;;;;22.10;60.56;98270.59;4169238;28;20227;-50
2022/07/25 00:33:00;;;;;;;8.02;7.53;;;;;;;22.09;61.08;98266.16;4169275;28;20708;-50
2022/07/25 00:35:03;;;;;;;8.80;8.10;;;;;;;22.09;60.75;98263.34;4171282;28;20645;-50
2022/07/25 00:37:04;;;;;;;7.07;6.57;;;;;;;22.10;60.75;98265.03;4166538;28;20211;-52
2022/07/25 00:39:06;;;;;;;7.28;6.78;;;;;;;22.09;60.90;98261.41;4184507;28;20258;-51
2022/07/25 00:41:08;;;;;;;6.75;6.25;;;;;;;22.08;60.43;98256.16;4168865;28;20280;-53
2022/07/25 00:43:10;;;;;;;7.65;7.05;;;;;;;22.07;60.93;98260.09;4182777;28;20300;-50
2022/07/25 00:45:11;;;;;;;6.50;6.10;;;;;;;22.05;61.08;98257.63;4173187;28;20261;-52
2022/07/25 00:47:13;;;;;;;6.97;6.47;;;;;;;21.95;61.37;98257.97;4176127;28;20223;-52
2022/07/25 00:49:15;;;;;;;7.45;6.95;;;;;;;21.91;61.28;98257.00;4169244;28;20261;-52
2022/07/25 00:51:16;;;;;;;6.50;6.00;;;;;;;21.90;60.98;98254.56;4170585;28;20227;-51
2022/07/25 00:53:19;;;;;;;7.07;6.65;;;;;;;21.89;61.37;98255.69;4168200;28;20579;-52
2022/07/25 00:55:22;;;;;;;6.97;6.47;;;;;;;21.87;61.44;98255.19;4154359;28;20254;-50
2022/07/25 00:57:27;;;;;;;7.25;6.75;;;;;;;21.81;61.54;98259.31;4169056;28;20204;-51
2022/07/25 00:59:28;;;;;;;7.63;7.13;;;;;;;21.79;61.57;98261.59;4173042;28;20227;-52
2022/07/25 01:01:30;;;;;;;8.73;7.88;;;;;;;21.73;61.55;98251.78;4169555;28;20822;-50
2022/07/25 01:03:32;;;;;;;8.95;8.35;;;;;;;21.69;62.12;98248.00;4170503;28;20238;-50
2022/07/25 01:05:34;;;;;;;7.40;6.80;;;;;;;21.63;62.08;98243.72;4171024;28;20745;-51
2022/07/25 01:07:36;;;;;;;8.38;7.88;;;;;;;21.65;62.30;98235.84;4169218;28;20207;-51
2022/07/25 01:09:38;;;;;;;6.82;6.40;;;;;;;21.61;61.98;98240.44;4174156;28;20238;-50
2022/07/25 01:11:39;;;;;;;7.78;7.28;;;;;;;21.60;62.25;98230.44;4171570;28;20341;-51
2022/07/25 01:13:41;;;;;;;7.40;6.85;;;;;;;21.56;62.38;98237.81;4175099;28;20203;-51
2022/07/25 01:15:43;;;;;;;7.47;7.03;;;;;;;21.51;62.30;98240.78;4169743;28;20769;-52
2022/07/25 01:17:45;;;;;;;8.90;8.25;;;;;;;21.48;62.62;98235.84;4189651;28;20260;-50
2022/07/25 01:19:47;;;;;;;7.20;6.70;;;;;;;21.48;62.18;98241.41;4170505;28;20766;-52
2022/07/25 01:21:48;;;;;;;7.55;7.05;;;;;;;21.49;62.50;98237.47;4173304;28;20290;-51
2022/07/25 01:23:50;;;;;;;7.15;6.65;;;;;;;21.49;62.58;98234.69;4173236;28;20208;-51
2022/07/25 01:25:52;;;;;;;7.10;6.70;;;;;;;21.45;62.55;98242.06;4174181;28;20574;-51
2022/07/25 01:27:54;;;;;;;7.78;7.18;;;;;;;21.42;62.83;98237.16;4173321;28;20313;-51
2022/07/25 01:29:56;;;;;;;7.72;7.22;;;;;;;21.42;63.02;98239.94;4175133;28;20613;-51
2022/07/25 01:31:58;;;;;;;6.72;6.28;;;;;;;21.42;63.01;98237.97;4187313;28;20750;-51
2022/07/25 01:34:00;;;;;;;8.00;7.40;;;;;;;21.40;62.73;98229.16;4176488;28;20243;-50
2022/07/25 01:36:02;;;;;;;8.18;7.57;;;;;;;21.38;62.55;98223.06;4174685;28;20721;-51
2022/07/25 01:38:04;;;;;;;6.97;6.47;;;;;;;21.37;62.60;98228.97;4167474;28;20207;-51
2022/07/25 01:40:06;;;;;;;6.95;6.45;;;;;;;21.34;63.25;98224.03;4173803;28;20228;-50
2022/07/25 01:42:08;;;;;;;7.82;6.90;;;;;;;21.26;63.12;98213.72;4188459;28;20561;-50
2022/07/25 01:44:09;;;;;;;7.57;7.07;;;;;;;21.21;63.13;98219.44;4161858;28;20208;-51
2022/07/25 01:46:11;;;;;;;7.95;7.43;;;;;;;21.14;63.44;98214.38;4178209;28;20207;-51
2022/07/25 01:48:13;;;;;;;7.50;7.00;;;;;;;21.13;63.81;98217.47;4172517;28;20204;-51
2022/07/25 01:50:17;;;;;;;7.32;6.63;;;;;;;21.01;63.77;98214.50;4173889;28;20874;-51
2022/07/25 01:52:19;;;;;;;7.75;7.05;;;;;;;20.92;63.94;98202.56;4184873;28;20196;-50
2022/07/25 01:54:20;;;;;;;7.55;7.03;;;;;;;20.86;63.88;98201.88;4175801;28;20214;-51
2022/07/25 01:56:22;;;;;;;7.00;6.60;;;;;;;20.81;63.86;98209.53;4173027;28;20203;-51
2022/07/25 01:58:24;;;;;;;7.45;6.95;;;;;;;20.82;63.70;98216.72;4174284;28;20369;-51
2022/07/25 02:00:26;;;;;;;7.50;6.95;;;;;;;20.83;63.85;98210.00;4187065;28;20723;-52
2022/07/25 02:02:27;;;;;;;7.82;7.28;;;;;;;20.86;63.48;98213.00;4170947;28;20240;-52
2022/07/25 02:04:29;;;;;;;7.35;6.82;;;;;;;20.89;63.73;98217.09;4184201;28;20229;-51
2022/07/25 02:06:33;;;;;;;7.25;6.82;;;;;;;20.90;63.51;98210.41;4173634;28;20804;-50
2022/07/25 02:08:35;;;;;;;7.13;6.63;;;;;;;20.91;63.51;98217.59;4174303;28;20222;-51
2022/07/25 02:10:37;;;;;;;8.20;7.60;;;;;;;20.88;63.52;98215.47;4171933;28;20216;-51
2022/07/25 02:12:39;;;;;;;8.05;7.45;;;;;;;20.85;64.01;98210.53;4175989;28;20207;-50
2022/07/25 02:14:40;;;;;;;7.60;7.10;;;;;;;20.75;64.58;98205.25;4175880;28;20249;-50
2022/07/25 02:16:42;;;;;;;7.95;7.15;;;;;;;20.65;64.88;98194.44;4172505;28;20281;-50
2022/07/25 02:18:44;;;;;;;8.07;7.57;;;;;;;20.60;65.16;98191.78;4169627;28;20767;-51
2022/07/25 02:20:48;;;;;;;7.47;6.97;;;;;;;20.59;65.59;98195.72;4170612;28;20224;-50
2022/07/25 02:22:49;;;;;;;8.85;8.23;;;;;;;20.55;65.05;98189.16;4172686;28;20210;-50
2022/07/25 02:24:51;;;;;;;8.43;7.90;;;;;;;20.49;65.12;98196.00;4170546;28;20204;-50
2022/07/25 02:26:53;;;;;;;8.18;7.65;;;;;;;20.43;65.46;98191.72;4158565;28;20204;-51
2022/07/25 02:28:55;;;;;;;8.00;7.50;;;;;;;20.44;65.38;98187.81;4172202;28;20226;-51
2022/07/25 02:30:56;;;;;;;8.00;7.50;;;;;;;20.42;65.12;98190.91;4170369;28;20479;-51
2022/07/25 02:32:59;;;;;;;7.70;7.20;;;;;;;20.40;65.21;98187.66;4184490;28;20222;-50
2022/07/25 02:35:00;;;;;;;8.05;7.45;;;;;;;20.41;65.21;98182.91;4170252;28;20207;-50
2022/07/25 02:37:02;;;;;;;8.05;7.45;;;;;;;20.44;64.95;98185.84;4170975;28;20211;-51
2022/07/25 02:39:04;;;;;;;7.15;6.68;;;;;;;20.46;65.06;98185.53;4174481;28;20262;-50
2022/07/25 02:41:06;;;;;;;8.07;7.47;;;;;;;20.47;65.16;98182.44;4171275;28;20228;-50
2022/07/25 02:43:07;;;;;;;7.28;6.68;;;;;;;20.49;65.02;98177.38;4174305;28;20673;-51
2022/07/25 02:45:09;;;;;;;7.95;7.45;;;;;;;20.52;64.97;98178.69;4172447;28;20200;-51
2022/07/25 02:47:11;;;;;;;7.57;6.97;;;;;;;20.52;64.85;98187.03;4174052;28;20215;-50
2022/07/25 02:49:13;;;;;;;8.45;7.65;;;;;;;20.50;64.82;98178.22;4176293;28;20211;-51
2022/07/25 02:51:15;;;;;;;8.02;7.53;;;;;;;20.44;65.16;98182.28;4170330;28;20301;-52
2022/07/25 02:53:16;;;;;;;8.07;7.38;;;;;;;20.41;65.33;98177.34;4171515;28;20262;-51
2022/07/25 02:55:34;;;;;;;7.60;7.10;;;;;;;20.35;65.34;98184.19;4185923;28;20849;-52
2022/07/25 02:57:36;;;;;;;8.07;7.47;;;;;;;20.32;65.55;98173.72;4175238;28;20208;-50
2022/07/25 02:59:37;;;;;;;8.07;7.47;;;;;;;20.29;65.81;98185.47;4169122;28;20289;-51
2022/07/25 03:01:39;;;;;;;9.50;7.50;;;;;;;20.27;65.57;98176.63;4172240;28;20227;-50
2022/07/25 03:03:41;;;;;;;7.40;6.93;;;;;;;20.26;65.80;98180.56;4172574;28;20207;-51
2022/07/25 03:05:43;;;;;;;8.20;7.70;;;;;;;20.25;65.96;98176.13;4168334;28;20216;-51
2022/07/25 03:07:44;;;;;;;8.00;7.50;;;;;;;20.16;65.84;98169.69;4183144;28;20210;-50
2022/07/25 03:09:46;;;;;;;8.02;7.43;;;;;;;20.07;66.21;98161.34;4181387;28;20740;-50
2022/07/25 03:11:49;;;;;;;7.95;7.45;;;;;;;20.04;66.34;98161.16;4170597;28;20223;-51
2022/07/25 03:13:50;;;;;;;8.77;8.10;;;;;;;20.04;66.05;98166.69;4173320;28;20665;-50
2022/07/25 03:15:52;;;;;;;8.20;7.68;;;;;;;20.03;66.27;98167.81;4171258;28;20211;-50
2022/07/25 03:17:54;;;;;;;7.80;7.05;;;;;;;20.06;66.43;98170.00;4185682;28;20207;-50
2022/07/25 03:19:56;;;;;;;7.95;7.45;;;;;;;20.09;66.23;98174.91;4170018;28;20269;-50
2022/07/25 03:21:58;;;;;;;8.18;7.68;;;;;;;20.06;66.41;98175.56;4175030;28;20204;-51
2022/07/25 03:23:59;;;;;;;7.72;7.22;;;;;;;20.05;66.71;98173.88;4171664;28;20227;-51
2022/07/25 03:26:01;;;;;;;8.77;8.27;;;;;;;20.02;66.71;98175.34;4169546;28;20204;-50
2022/07/25 03:28:03;;;;;;;7.85;7.35;;;;;;;19.96;66.73;98173.00;4174002;28;20212;-50
2022/07/25 03:30:05;;;;;;;7.65;6.85;;;;;;;19.95;66.60;98177.75;4169917;28;20204;-50
2022/07/25 03:32:08;;;;;;;9.10;8.50;;;;;;;19.89;66.83;98169.88;4173381;28;20229;-52
2022/07/25 03:34:09;;;;;;;7.75;7.25;;;;;;;19.89;66.63;98169.88;4174237;28;20286;-51
2022/07/25 03:36:11;;;;;;;7.43;6.93;;;;;;;19.88;66.85;98168.22;4183637;28;20640;-50
2022/07/25 03:38:13;;;;;;;7.60;7.10;;;;;;;19.83;66.92;98160.03;4174398;28;20200;-51
2022/07/25 03:40:14;;;;;;;7.90;7.38;;;;;;;19.77;66.94;98162.13;4170511;28;20224;-50
2022/07/25 03:42:16;;;;;;;8.38;7.88;;;;;;;19.61;67.89;98162.84;4171541;28;20208;-50
2022/07/25 03:44:19;;;;;;;9.23;8.45;;;;;;;19.44;68.58;98146.09;4171983;28;20254;-51
2022/07/25 03:46:20;;;;;;;8.30;7.75;;;;;;;19.41;68.50;98157.81;4169740;28;20207;-51
2022/07/25 03:48:22;;;;;;;9.55;8.85;;;;;;;19.20;69.21;98154.72;4169516;28;20216;-52
2022/07/25 03:50:24;;;;;;;8.90;8.20;;;;;;;19.10;69.44;98140.22;4168570;28;20721;-51
2022/07/25 03:52:26;;;;;;;9.15;8.40;;;;;;;19.16;69.06;98150.06;4170503;28;20265;-50
2022/07/25 03:54:27;;;;;;;7.88;7.38;;;;;;;19.23;68.82;98150.47;4172441;28;20209;-50
2022/07/25 03:56:37;;;;;;;8.07;7.57;;;;;;;19.30;68.69;98154.47;4167232;28;20529;-50
2022/07/25 03:58:44;;;;;;;8.30;7.70;;;;;;;19.37;68.44;98151.25;4171495;28;21602;-50
2022/07/25 04:00:47;;;;;;;8.10;7.50;;;;;;;19.45;68.17;98131.88;4172516;28;20224;-51
2022/07/25 04:02:49;;;;;;;8.43;7.70;;;;;;;19.51;67.93;98140.91;4177905;28;20263;-51
2022/07/25 04:04:51;;;;;;;8.48;7.80;;;;;;;19.53;67.66;98135.84;4170901;28;20311;-50
2022/07/25 04:06:52;;;;;;;7.90;7.30;;;;;;;19.54;67.70;98131.94;4172619;28;20205;-50
2022/07/25 04:08:55;;;;;;;7.43;6.97;;;;;;;19.54;67.51;98134.72;4175552;28;20719;-50
2022/07/25 04:10:56;;;;;;;8.60;8.00;;;;;;;19.54;67.64;98130.00;4182640;28;20544;-52
2022/07/25 04:12:58;;;;;;;8.93;8.18;;;;;;;19.54;67.63;98132.75;4168959;28;20254;-52
2022/07/25 04:15:00;;;;;;;8.10;7.40;;;;;;;19.55;67.65;98125.22;4176105;28;20769;-51
2022/07/25 04:17:02;;;;;;;8.43;7.63;;;;;;;19.54;67.46;98129.16;4175167;28;20200;-51
2022/07/25 04:19:04;;;;;;;8.73;8.13;;;;;;;19.52;67.50;98131.44;4184936;28;20211;-50
2022/07/25 04:21:07;;;;;;;7.57;7.07;;;;;;;19.51;67.30;98124.25;4174830;28;20243;-52
2022/07/25 04:23:09;;;;;;;8.77;8.18;;;;;;;19.52;67.30;98125.88;4174607;28;20204;-50
2022/07/25 04:25:11;;;;;;;8.65;7.90;;;;;;;19.52;67.32;98125.88;4170208;28;20212;-50
2022/07/25 04:27:13;;;;;;;8.40;7.60;;;;;;;19.52;67.43;98132.25;4152459;28;20208;-51
2022/07/25 04:29:14;;;;;;;8.23;7.72;;;;;;;19.51;67.34;98125.06;4174000;28;20559;-51
2022/07/25 04:31:16;;;;;;;7.95;7.45;;;;;;;19.52;67.47;98126.69;4167876;28;20216;-51
2022/07/25 04:33:19;;;;;;;7.88;7.28;;;;;;;19.54;67.12;98129.16;4184671;28;20203;-51
2022/07/25 04:35:21;;;;;;;8.68;7.97;;;;;;;19.52;67.45;98117.56;4173690;28;20227;-51
2022/07/25 04:37:22;;;;;;;8.80;8.20;;;;;;;19.51;67.39;98127.03;4173364;28;20212;-51
2022/07/25 04:39:24;;;;;;;8.07;7.47;;;;;;;19.50;67.47;98128.13;4170060;28;20739;-50
2022/07/25 04:41:26;;;;;;;8.63;8.02;;;;;;;19.47;67.51;98128.78;4169636;28;20224;-51
2022/07/25 04:43:28;;;;;;;8.30;7.70;;;;;;;19.47;67.61;98128.78;4182881;28;20241;-50
2022/07/25 04:45:31;;;;;;;7.53;6.93;;;;;;;19.46;67.28;98122.41;4167457;28;20220;-52
2022/07/25 04:47:33;;;;;;;8.27;7.68;;;;;;;19.46;67.55;98124.38;4170756;28;20212;-52
2022/07/25 04:49:35;;;;;;;7.82;7.32;;;;;;;19.46;67.32;98127.16;4168961;28;20220;-50
2022/07/25 04:51:40;;;;;;;6.95;6.55;;;;;;;19.48;67.36;98122.09;4174745;28;20227;-51
2022/07/25 04:53:42;;;;;;;8.13;7.38;;;;;;;19.51;67.62;98113.16;4172564;28;20277;-51
2022/07/25 04:55:44;;;;;;;9.27;8.50;;;;;;;19.53;67.64;98120.03;4169499;28;20208;-50
2022/07/25 04:57:46;;;;;;;9.02;8.20;;;;;;;19.57;67.63;98114.66;4176838;28;20212;-50
2022/07/25 04:59:47;;;;;;;8.48;7.97;;;;;;;19.61;67.50;98115.63;4175881;28;20655;-50
2022/07/25 05:01:49;;;;;;;8.15;7.55;;;;;;;19.63;67.35;98110.59;4173831;28;20258;-51
2022/07/25 05:03:51;;;;;;;8.57;7.88;;;;;;;19.65;67.55;98113.88;4171745;28;20215;-52
2022/07/25 05:05:52;;;;;;;9.65;9.05;;;;;;;19.66;67.43;98102.44;4174784;28;20203;-51
2022/07/25 05:07:56;;;;;;;8.27;7.68;;;;;;;19.70;67.18;98105.38;4177922;28;20244;-50
2022/07/25 05:09:58;;;;;;;8.23;7.68;;;;;;;19.74;67.07;98114.75;4173940;28;20207;-50
2022/07/25 05:11:59;;;;;;;7.80;7.25;;;;;;;19.75;66.93;98111.66;4176502;28;20208;-52
2022/07/25 05:14:01;;;;;;;8.60;8.00;;;;;;;19.78;67.23;98112.97;4168427;28;20357;-52
2022/07/25 05:16:03;;;;;;;8.15;7.65;;;;;;;19.81;67.62;98106.75;4176496;28;20211;-53
2022/07/25 05:18:05;;;;;;;9.38;8.45;;;;;;;19.84;67.04;98114.47;4187075;28;20208;-52
2022/07/25 05:20:07;;;;;;;9.10;8.48;;;;;;;19.85;67.09;98103.03;4171535;28;20208;-50
2022/07/25 05:22:09;;;;;;;7.93;7.20;;;;;;;19.87;67.02;98102.72;4174593;28;20207;-50
2022/07/25 05:24:11;;;;;;;8.77;8.18;;;;;;;19.90;66.92;98104.88;4177144;28;20303;-50
2022/07/25 05:26:13;;;;;;;8.23;7.60;;;;;;;19.95;66.80;98104.69;4174786;28;20657;-52
2022/07/25 05:28:15;;;;;;;7.45;6.85;;;;;;;20.01;66.64;98111.75;4175961;28;20201;-50
2022/07/25 05:30:16;;;;;;;9.18;8.52;;;;;;;20.09;66.39;98105.44;4171033;28;20236;-51
2022/07/25 05:32:18;;;;;;;8.50;7.93;;;;;;;20.21;66.47;98105.66;4168601;28;20261;-51
2022/07/25 05:34:20;;;;;;;9.48;8.85;;;;;;;20.25;66.70;98106.66;4152718;28;20200;-52
2022/07/25 05:36:22;;;;;;;7.47;6.95;;;;;;;20.30;66.44;98098.19;4168388;28;20674;-51
2022/07/25 05:38:23;;;;;;;9.32;8.63;;;;;;;20.45;67.06;98106.06;4167276;28;20212;-50
2022/07/25 05:40:28;;;;;;;9.02;8.52;;;;;;;20.55;67.76;98112.13;4154331;28;20239;-51
2022/07/25 05:42:30;;;;;;;9.27;8.52;;;;;;;20.72;68.03;98111.34;4154851;28;20213;-50
2022/07/25 05:44:32;;;;;;;9.65;8.95;;;;;;;20.96;67.26;98106.13;4166914;28;20203;-51
2022/07/25 05:46:37;;;;;;;8.75;8.23;;;;;;;21.16;66.65;98111.03;4156464;28;20623;-51
2022/07/25 05:48:39;;;;;;;9.75;9.00;;;;;;;21.28;65.82;98109.25;4160140;28;20212;-50
2022/07/25 05:50:41;;;;;;;8.82;8.23;;;;;;;21.47;65.48;98108.91;4151770;28;20224;-50
2022/07/25 05:52:42;;;;;;;9.02;8.43;;;;;;;21.74;65.27;98116.91;4152353;28;20208;-51
2022/07/25 05:54:44;;;;;;;9.75;9.05;;;;;;;21.86;64.51;98114.25;4157834;28;20240;-50
2022/07/25 05:56:46;;;;;;;9.45;8.85;;;;;;;21.99;64.39;98113.22;4162018;28;20254;-51
2022/07/25 05:58:48;;;;;;;9.88;8.75;;;;;;;21.94;63.54;98103.06;4159288;28;20205;-51
2022/07/25 06:00:49;;;;;;;9.55;8.90;;;;;;;21.80;63.61;98101.66;4151464;28;20232;-49
2022/07/25 06:02:51;;;;;;;9.90;9.30;;;;;;;21.90;63.63;98092.94;4157421;28;20224;-49
2022/07/25 06:04:57;;;;;;;10.43;8.52;;;;;;;22.14;63.53;98104.28;4158293;28;20506;-49
2022/07/25 06:06:59;;;;;;;9.32;8.63;;;;;;;22.15;62.90;98100.34;4167870;28;20200;-50
2022/07/25 06:09:01;;;;;;;9.98;9.10;;;;;;;22.25;63.50;98105.56;4157462;28;20294;-49
2022/07/25 06:11:08;;;;;;;11.77;9.80;;;;;;;22.47;62.38;98113.66;4153417;28;20314;-49
2022/07/25 06:13:10;;;;;;;8.63;7.78;;;;;;;22.53;62.14;98106.75;4156034;28;20262;-49
2022/07/25 06:15:12;;;;;;;9.80;9.10;;;;;;;22.67;62.24;98102.56;4159068;28;20205;-49
2022/07/25 06:17:23;;;;;;;8.77;8.07;;;;;;;22.90;61.61;98105.84;4155861;28;20239;-49
2022/07/25 06:19:32;;;;;;;8.07;7.53;;;;;;;23.14;61.25;98103.19;4157095;28;20760;-49
2022/07/25 06:21:34;;;;;;;9.52;8.80;;;;;;;23.27;61.08;98104.91;4152996;28;20275;-49
2022/07/25 06:23:36;;;;;;;9.40;8.77;;;;;;;23.32;61.15;98097.16;4162020;28;20230;-50
2022/07/25 06:25:37;;;;;;;9.23;8.43;;;;;;;23.24;60.87;98094.44;4156621;28;20213;-49
2022/07/25 06:27:39;;;;;;;8.43;7.72;;;;;;;23.22;60.68;98086.41;4161633;28;20227;-51
2022/07/25 06:29:41;;;;;;;8.88;8.23;;;;;;;23.33;60.94;98087.63;4160695;28;20208;-50
2022/07/25 06:31:43;;;;;;;9.18;8.57;;;;;;;23.57;60.87;98087.69;4156543;28;20220;-49
2022/07/25 06:33:47;;;;;;;9.18;8.48;;;;;;;23.74;59.95;98091.09;4154268;28;20292;-51
2022/07/25 06:35:49;;;;;;;8.68;8.02;;;;;;;23.79;59.76;98084.50;4158807;28;20270;-50
2022/07/25 06:37:51;;;;;;;10.13;9.27;;;;;;;23.80;59.13;98088.94;4153785;28;20212;-51
2022/07/25 06:39:53;;;;;;;8.80;8.20;;;;;;;23.94;59.11;98086.66;4155342;28;20216;-50
2022/07/25 06:41:56;;;;;;;9.18;7.30;;;;;;;23.94;59.55;98081.84;4153686;28;20957;-51
2022/07/25 06:43:57;;;;;;;9.95;9.25;;;;;;;24.04;59.22;98075.00;4139363;28;20220;-51
2022/07/25 06:45:59;;;;;;;8.57;8.07;;;;;;;24.07;59.51;98083.50;4171683;28;20199;-51
2022/07/25 06:48:01;;;;;;;8.05;7.40;;;;;;;24.40;58.90;98089.03;4158574;28;20207;-52
2022/07/25 06:50:05;;;;;;;8.90;8.30;;;;;;;24.29;58.05;98077.47;4172504;28;20267;-51
2022/07/25 06:52:10;;;;;;;9.00;8.13;;;;;;;24.48;58.35;98093.69;4156051;28;20296;-50
2022/07/25 06:54:14;;;;;;;8.30;7.80;;;;;;;24.63;58.22;98085.44;4167087;28;20200;-51
2022/07/25 06:56:16;;;;;;;9.05;8.32;;;;;;;24.78;57.90;98073.50;4157239;28;20216;-51
2022/07/25 06:58:18;;;;;;;9.10;8.38;;;;;;;24.99;57.53;98084.53;4154695;28;20244;-50
2022/07/25 07:00:26;;;;;;;9.32;8.50;;;;;;;25.20;57.32;98085.97;4155207;28;20228;-51
2022/07/25 07:02:28;;;;;;;8.93;8.30;;;;;;;25.36;56.81;98083.25;4170912;28;20227;-51
2022/07/25 07:04:30;;;;;;;9.82;8.23;;;;;;;25.49;56.57;98082.03;4156901;28;20212;-51
2022/07/25 07:06:32;;;;;;;9.10;8.27;;;;;;;25.64;55.71;98079.28;4152345;28;20593;-51
2022/07/25 07:08:34;;;;;;;19.02;9.80;;;;;;;25.68;55.77;98085.81;4153725;28;20211;-52
2022/07/25 07:10:35;;;;;;;10.00;8.23;;;;;;;25.86;55.48;98081.47;4139467;28;20263;-52
2022/07/25 07:12:37;;;;;;;19.30;8.45;;;;;;;26.09;55.50;98079.75;4153359;28;20270;-51
2022/07/25 07:14:40;;;;;;;9.52;8.63;;;;;;;26.13;54.52;98079.84;4154349;28;20212;-52
2022/07/25 07:16:42;;;;;;;10.43;9.55;;;;;;;26.31;54.68;98079.09;4157348;28;20254;-51
2022/07/25 07:18:44;;;;;;;14.10;8.25;;;;;;;26.44;54.06;98086.25;4157748;28;20254;-52
2022/07/25 07:20:51;;;;;;;11.57;8.23;;;;;;;26.69;53.69;98087.69;4161398;28;20231;-51
2022/07/25 07:22:52;;;;;;;9.40;8.00;;;;;;;26.68;54.31;98093.66;4155976;28;20204;-51
2022/07/25 07:24:54;;;;;;;8.80;8.15;;;;;;;26.66;54.18;98088.41;4155972;28;20208;-50
2022/07/25 07:27:00;;;;;;;11.85;7.90;;;;;;;26.91;53.75;98089.00;4158842;28;20287;-50
2022/07/25 07:29:02;;;;;;;11.85;7.85;;;;;;;27.10;53.62;98081.41;4153571;28;20208;-50
2022/07/25 07:31:05;;;;;;;14.95;9.15;;;;;;;27.25;53.09;98077.75;4159334;28;20299;-50
2022/07/25 07:33:17;;;;;;;11.55;9.52;;;;;;;27.46;52.47;98089.44;4156214;28;20197;-49
2022/07/25 07:35:19;;;;;;;10.30;9.50;;;;;;;27.61;52.07;98080.13;4160845;28;20262;-50
2022/07/25 07:37:21;;;;;;;10.63;8.27;;;;;;;27.86;50.71;98075.81;4159278;28;20674;-49
2022/07/25 07:39:23;;;;;;;12.82;9.02;;;;;;;28.00;51.42;98084.50;4159254;28;20661;-51
2022/07/25 07:41:25;;;;;;;11.98;8.82;;;;;;;27.90;51.53;98076.69;4156418;28;20285;-50
2022/07/25 07:43:30;;;;;;;9.05;7.85;;;;;;;28.23;50.79;98085.34;4159042;28;20250;-50
2022/07/25 07:45:32;;;;;;;13.25;8.75;;;;;;;28.21;50.18;98081.28;4173213;28;20697;-50
2022/07/25 07:47:34;;;;;;;9.38;8.65;;;;;;;28.18;49.67;98087.66;4154705;28;20209;-52
2022/07/25 07:49:36;;;;;;;9.18;8.38;;;;;;;28.38;50.40;98080.81;4152180;28;20679;-51
2022/07/25 07:51:37;;;;;;;8.02;7.43;;;;;;;28.66;50.14;98082.06;4154776;28;20252;-50
2022/07/25 07:55:59;;;;;;;8.15;7.65;;;;;;;28.66;48.47;98067.97;4153305;28;20213;-51
2022/07/25 07:58:02;;;;;;;6.32;5.93;;;;;;;28.96;47.13;98068.88;4170009;28;20665;-51
2022/07/25 08:00:05;;;;;;;7.28;6.85;;;;;;;29.17;47.12;98069.16;4159744;28;20251;-50
2022/07/25 08:02:07;;;;;;;7.20;6.47;;;;;;;29.19;46.31;98066.78;4160528;28;20224;-50
2022/07/25 08:04:09;;;;;;;6.15;5.72;;;;;;;29.39;46.28;98071.06;4154267;28;20246;-50
2022/07/25 08:06:11;;;;;;;6.50;6.10;;;;;;;29.32;45.17;98064.53;4152770;28;20295;-50
2022/07/25 08:08:14;;;;;;;6.55;6.05;;;;;;;29.26;45.84;98055.59;4152740;28;20282;-52
2022/07/25 08:10:42;;;;;;;5.75;5.35;;;;;;;29.36;47.01;98054.91;4158501;28;20235;-50
2022/07/25 08:12:43;;;;;;;5.93;5.53;;;;;;;29.53;45.30;98051.53;4151797;28;20215;-51
2022/07/25 08:14:45;;;;;;;8.23;7.22;;;;;;;29.39;45.81;98053.34;4152798;28;20258;-50
2022/07/25 08:16:47;;;;;;;5.65;5.25;;;;;;;29.58;45.46;98056.03;4152496;28;20297;-50
2022/07/25 08:18:49;;;;;;;6.15;5.72;;;;;;;29.77;45.46;98053.81;4138328;28;20255;-50
2022/07/25 08:20:51;;;;;;;5.47;5.13;;;;;;;30.13;45.63;98050.22;4154034;28;20232;-50
2022/07/25 08:22:53;;;;;;;5.63;5.32;;;;;;;30.43;44.92;98055.69;4152859;28;20255;-52
2022/07/25 08:25:00;;;;;;;6.78;6.10;;;;;;;30.36;43.75;98053.63;4155076;28;20204;-49
2022/07/25 08:27:02;;;;;;;8.18;5.90;;;;;;;29.87;44.30;98055.13;4158500;28;20694;-51
2022/07/25 08:29:04;;;;;;;5.95;5.55;;;;;;;29.84;44.56;98061.56;4156842;28;20215;-49
2022/07/25 08:31:19;;;;;;;10.13;5.60;;;;;;;29.49;45.03;98047.84;4159746;28;20744;-51
2022/07/25 08:33:21;;;;;;;7.10;6.57;;;;;;;29.94;45.54;98047.56;4174084;28;20219;-50
2022/07/25 08:35:24;;;;;;;5.80;5.40;;;;;;;30.48;45.47;98047.69;4161451;28;20295;-49
2022/07/25 08:37:28;;;;;;;5.57;5.18;;;;;;;30.73;44.22;98048.72;4148466;28;20204;-50
2022/07/25 08:39:30;;;;;;;5.32;4.82;;;;;;;30.68;42.91;98049.06;4163352;28;20298;-49
2022/07/25 08:41:32;;;;;;;7.78;5.40;;;;;;;30.19;43.05;98042.19;4174011;28;20228;-49
2022/07/25 08:43:36;;;;;;;6.00;5.55;;;;;;;30.13;43.60;98036.09;4156099;28;20239;-50
2022/07/25 08:45:44;;;;;;;6.70;6.20;;;;;;;30.23;43.61;98038.19;4173545;28;20200;-49
2022/07/25 08:47:48;;;;;;;6.75;5.90;;;;;;;30.65;43.54;98041.38;4176702;28;20202;-49
2022/07/25 08:49:51;;;;;;;6.30;5.47;;;;;;;30.97;42.83;98039.56;4173009;28;20234;-49
2022/07/25 08:51:55;;;;;;;6.32;5.75;;;;;;;31.15;41.68;98025.50;4144272;28;20212;-51
2022/07/25 08:53:58;;;;;;;8.38;5.30;;;;;;;31.22;41.67;98032.06;4177036;28;20201;-50
2022/07/25 08:56:02;;;;;;;6.05;5.60;;;;;;;31.30;41.41;98030.88;4169097;28;20207;-49
2022/07/25 08:58:14;;;;;;;5.50;5.20;;;;;;;31.46;40.91;98028.53;4169534;28;20248;-49
2022/07/25 09:00:18;;;;;;;5.32;4.72;;;;;;;31.28;40.80;98026.81;4188176;28;20226;-49
2022/07/25 09:02:20;;;;;;;6.00;5.45;;;;;;;31.23;41.14;98030.03;4177871;28;20277;-50
2022/07/25 09:04:23;;;;;;;5.43;5.03;;;;;;;30.91;40.97;98029.03;4174196;28;20222;-51
2022/07/25 09:06:25;;;;;;;6.03;5.53;;;;;;;31.34;40.43;98020.41;4172466;28;20673;-49
2022/07/25 09:08:27;;;;;;;5.28;4.93;;;;;;;31.07;40.41;98021.88;4188847;28;20249;-49
2022/07/25 09:10:29;;;;;;;5.85;5.13;;;;;;;30.88;41.07;98030.63;4189675;28;20296;-49
2022/07/25 09:12:31;;;;;;;5.97;5.57;;;;;;;30.75;41.56;98026.50;4179867;28;20215;-49
2022/07/25 09:14:43;;;;;;;6.10;5.70;;;;;;;30.74;41.50;98035.38;4174865;28;20219;-50
2022/07/25 09:16:45;;;;;;;4.75;4.35;;;;;;;31.03;41.18;98034.34;4173885;28;20207;-50
2022/07/25 09:18:48;;;;;;;4.78;4.47;;;;;;;31.08;41.67;98037.63;4190680;28;20855;-51
2022/07/25 09:20:57;;;;;;;5.45;5.05;;;;;;;31.23;41.29;98030.84;4176963;28;20614;-49
2022/07/25 09:22:59;;;;;;;5.60;5.20;;;;;;;31.52;41.11;98026.91;4173310;28;20227;-51
2022/07/25 09:25:01;;;;;;;4.47;4.18;;;;;;;31.48;40.41;98026.91;4181206;28;20665;-49
2022/07/25 09:27:09;;;;;;;5.13;4.72;;;;;;;31.28;41.35;98022.00;4189864;28;20282;-50
2022/07/25 09:29:31;;;;;;;4.22;4.00;;;;;;;31.16;41.14;98025.13;4170798;28;20235;-49
2022/07/25 09:31:33;;;;;;;4.85;4.40;;;;;;;31.32;40.89;98022.78;4173879;28;20223;-49
2022/07/25 09:33:55;;;;;;;5.45;4.93;;;;;;;31.53;41.35;98023.69;4177641;28;20214;-50
2022/07/25 09:35:57;;;;;;;5.50;5.10;;;;;;;31.65;40.34;98025.34;4187960;28;20289;-49
2022/07/25 09:38:13;;;;;;;6.63;4.85;;;;;;;32.16;40.61;98017.38;4172111;28;20203;-49